createdAt,value
2023-03-27T00:03:31.861Z,1092.00
2023-03-27T00:07:31.906Z,584.00
2023-03-27T00:11:32.007Z,823.00
2023-03-27T00:15:31.994Z,926.00
2023-03-27T00:19:32.052Z,632.00
2023-03-27T00:23:32.136Z,628.00
2023-03-27T00:27:32.311Z,788.00
2023-03-27T00:31:32.530Z,746.00
2023-03-27T00:35:32.543Z,590.00
2023-03-27T00:39:32.543Z,627.00
2023-03-27T00:43:32.655Z,940.00
2023-03-27T00:47:32.942Z,645.00
2023-03-27T00:51:32.963Z,881.00
2023-03-27T00:55:33.039Z,767.00
2023-03-27T00:59:33.150Z,643.00
2023-03-27T01:03:33.346Z,662.00
2023-03-27T01:07:33.366Z,792.00
2023-03-27T01:11:33.436Z,876.00
2023-03-27T01:15:33.496Z,636.00
2023-03-27T01:19:33.616Z,643.00
2023-03-27T01:23:35.450Z,845.00
2023-03-27T01:27:34.694Z,808.00
2023-03-27T01:31:33.683Z,616.00
2023-03-27T01:35:33.677Z,553.00
2023-03-27T01:39:33.580Z,590.00
2023-03-27T01:43:33.546Z,530.00
2023-03-27T01:47:33.557Z,497.00
2023-03-27T01:51:33.503Z,502.00
2023-03-27T01:55:33.441Z,520.00
2023-03-27T01:59:33.408Z,545.00
2023-03-27T02:03:33.398Z,614.00
2023-03-27T02:07:33.365Z,603.00
2023-03-27T02:11:33.305Z,600.00
2023-03-27T02:15:33.271Z,557.00
2023-03-27T02:19:33.239Z,598.00
2023-03-27T02:23:33.213Z,638.00
2023-03-27T02:27:33.196Z,611.00
2023-03-27T02:31:34.841Z,566.00
2023-03-27T02:35:33.144Z,655.00
2023-03-27T02:39:33.086Z,621.00
2023-03-27T02:43:33.073Z,674.00
2023-03-27T02:47:33.069Z,523.00
2023-03-27T02:51:33.024Z,560.00
2023-03-27T02:55:33.105Z,546.00
2023-03-27T02:59:33.180Z,600.00
2023-03-27T03:03:33.216Z,615.00
2023-03-27T03:07:33.254Z,665.00
2023-03-27T03:11:33.297Z,665.00
2023-03-27T03:15:33.332Z,616.00
2023-03-27T03:19:33.388Z,637.00
2023-03-27T03:23:33.331Z,591.00
2023-03-27T03:27:33.326Z,571.00
2023-03-27T03:31:33.344Z,598.00
2023-03-27T03:35:33.373Z,532.00
2023-03-27T03:39:33.325Z,509.00
2023-03-27T03:43:33.362Z,535.00
2023-03-27T03:47:33.362Z,568.00
2023-03-27T03:51:33.391Z,599.00
2023-03-27T03:55:33.430Z,624.00
2023-03-27T03:59:33.515Z,671.00
2023-03-27T04:03:33.694Z,659.00
2023-03-27T04:07:33.735Z,657.00
2023-03-27T04:11:33.815Z,666.00
2023-03-27T04:15:33.930Z,647.00
2023-03-27T04:19:34.026Z,745.00
2023-03-27T04:23:34.168Z,762.00
2023-03-27T04:27:34.314Z,767.00
2023-03-27T04:31:34.631Z,708.00
2023-03-27T04:35:34.569Z,624.00
2023-03-27T04:39:34.651Z,648.00
2023-03-27T04:43:34.793Z,631.00
2023-03-27T04:47:35.150Z,792.00
2023-03-27T04:51:35.137Z,854.00
2023-03-27T04:55:35.276Z,956.00
2023-03-27T04:59:35.417Z,830.00
2023-03-27T05:03:35.600Z,879.00
2023-03-27T05:07:35.657Z,867.00
2023-03-27T05:11:35.802Z,1006.00
2023-03-27T05:15:35.858Z,1272.00
2023-03-27T05:19:36.011Z,1116.00
2023-03-27T05:23:36.106Z,1240.00
2023-03-27T05:27:36.251Z,1359.00
2023-03-27T05:31:36.442Z,1913.00
2023-03-27T05:35:36.494Z,2459.00
2023-03-27T05:39:36.588Z,2935.00
2023-03-27T05:43:36.733Z,3325.00
2023-03-27T05:47:36.983Z,3601.00
2023-03-27T05:51:37.185Z,3227.00
2023-03-27T05:55:37.306Z,1056.00
2023-03-27T05:59:37.399Z,1652.00
2023-03-27T06:03:37.630Z,2632.00
2023-03-27T06:07:37.557Z,3118.00
2023-03-27T06:11:37.743Z,3194.00
2023-03-27T06:15:37.962Z,3096.00
2023-03-27T06:19:39.162Z,2995.00
2023-03-27T06:23:38.133Z,3061.00
2023-03-27T06:27:38.214Z,3248.00
2023-03-27T06:31:38.809Z,2928.00
2023-03-27T06:35:38.720Z,2908.00
2023-03-27T06:39:38.686Z,3342.00
2023-03-27T06:43:38.422Z,3564.00
2023-03-27T06:47:44.448Z,1917.00
2023-03-27T06:51:39.469Z,1150.00
2023-03-27T06:55:38.705Z,1725.00
2023-03-27T06:59:38.672Z,723.00
2023-03-27T07:03:38.514Z,788.00
2023-03-27T07:07:41.058Z,549.00
2023-03-27T07:11:38.622Z,563.00
2023-03-27T07:15:38.544Z,830.00
2023-03-27T07:19:38.551Z,601.00
2023-03-27T07:23:38.699Z,563.00
2023-03-27T07:27:38.447Z,910.00
2023-03-27T07:35:38.734Z,574.00
2023-03-27T07:39:38.318Z,650.00
2023-03-27T07:43:38.319Z,660.00
2023-03-27T07:47:38.263Z,839.00
2023-03-27T07:51:38.221Z,1723.00
2023-03-27T07:55:38.205Z,1620.00
2023-03-27T07:59:38.164Z,1378.00
2023-03-27T08:03:38.251Z,1239.00
2023-03-27T08:07:38.301Z,1419.00
2023-03-27T08:11:38.527Z,1318.00
2023-03-27T08:15:38.736Z,1124.00
2023-03-27T08:19:39.212Z,773.00
2023-03-27T08:23:39.073Z,533.00
2023-03-27T08:27:39.202Z,2244.00
2023-03-27T08:31:39.332Z,3187.00
2023-03-27T08:35:39.436Z,3488.00
2023-03-27T08:39:39.719Z,3582.00
2023-03-27T08:43:39.720Z,3702.00
2023-03-27T08:47:39.869Z,3750.00
2023-03-27T08:51:39.954Z,3627.00
2023-03-27T08:55:40.245Z,3690.00
2023-03-27T08:59:39.866Z,3565.00
2023-03-27T09:03:39.958Z,3596.00
2023-03-27T09:07:40.223Z,3597.00
2023-03-27T09:11:39.777Z,3167.00
2023-03-27T09:15:39.846Z,3726.00
2023-03-27T09:19:39.723Z,3758.00
2023-03-27T09:23:39.724Z,3701.00
2023-03-27T09:27:39.707Z,3013.00
2023-03-27T09:31:39.765Z,3141.00
2023-03-27T09:35:40.240Z,3552.00
2023-03-27T09:39:39.964Z,3704.00
2023-03-27T09:43:40.214Z,3726.00
2023-03-27T09:47:40.275Z,3689.00
2023-03-27T09:51:40.296Z,3609.00
2023-03-27T09:55:41.193Z,3432.00
2023-03-27T09:59:40.447Z,3543.00
2023-03-27T10:03:40.566Z,3352.00
2023-03-27T10:07:40.642Z,3498.00
2023-03-27T10:11:40.737Z,3461.00
2023-03-27T10:15:40.679Z,3195.00
2023-03-27T10:19:40.766Z,2784.00
2023-03-27T10:23:41.328Z,2647.00
2023-03-27T10:27:41.233Z,2812.00
2023-03-27T10:31:41.260Z,2851.00
2023-03-27T10:35:41.241Z,3451.00
2023-03-27T10:39:41.296Z,3319.00
2023-03-27T10:43:41.315Z,3318.00
2023-03-27T10:47:41.316Z,3274.00
2023-03-27T10:51:46.612Z,3307.00
2023-03-27T10:55:42.235Z,3255.00
2023-03-27T10:59:42.130Z,3207.00
2023-03-27T11:03:41.423Z,2911.00
2023-03-27T11:07:41.585Z,3042.00
2023-03-27T11:11:41.795Z,3073.00
2023-03-27T11:15:42.332Z,2590.00
2023-03-27T11:19:41.908Z,2775.00
2023-03-27T11:23:42.242Z,2414.00
2023-03-27T11:27:41.994Z,1890.00
2023-03-27T11:31:42.102Z,2068.00
2023-03-27T11:35:42.150Z,1806.00
2023-03-27T11:39:42.244Z,1428.00
2023-03-27T11:43:42.383Z,2238.00
2023-03-27T11:47:42.684Z,2278.00
2023-03-27T11:51:42.585Z,2649.00
2023-03-27T11:55:42.662Z,3085.00
2023-03-27T11:59:42.740Z,2758.00
2023-03-27T12:03:42.762Z,3043.00
2023-03-27T12:07:47.653Z,3121.00
2023-03-27T12:11:43.789Z,2680.00
2023-03-27T12:15:42.664Z,3206.00
2023-03-27T12:19:42.788Z,3131.00
2023-03-27T12:23:42.716Z,3114.00
2023-03-27T12:27:42.973Z,3103.00
2023-03-27T12:31:42.907Z,3093.00
2023-03-27T12:35:42.887Z,3070.00
2023-03-27T12:39:42.809Z,3086.00
2023-03-27T12:43:42.804Z,3054.00
2023-03-27T12:47:42.849Z,2984.00
2023-03-27T12:51:42.708Z,3017.00
2023-03-27T12:55:42.917Z,2976.00
2023-03-27T12:59:43.067Z,2957.00
2023-03-27T13:03:43.189Z,2932.00
2023-03-27T13:07:43.281Z,2918.00
2023-03-27T13:11:43.294Z,2893.00
2023-03-27T13:15:43.222Z,2874.00
2023-03-27T13:19:43.219Z,2889.00
2023-03-27T13:23:43.221Z,2865.00
2023-03-27T13:27:43.246Z,2857.00
2023-03-27T13:31:43.401Z,2863.00
2023-03-27T13:35:43.364Z,2837.00
2023-03-27T13:39:43.345Z,2803.00
2023-03-27T15:15:45.728Z,3513.00
2023-03-27T15:19:45.813Z,3625.00
2023-03-27T15:23:45.675Z,3477.00
2023-03-27T15:27:45.635Z,3835.00
2023-03-27T15:32:06.287Z,500.00
2023-03-27T15:33:06.361Z,500.00
2023-03-27T15:34:06.292Z,500.00
2023-03-27T15:35:06.264Z,500.00
2023-03-27T15:36:06.325Z,500.00
2023-03-27T15:37:06.277Z,537.00
2023-03-27T15:38:06.263Z,429.00
2023-03-27T15:39:06.241Z,522.00
2023-03-27T15:40:06.243Z,586.00
2023-03-27T15:41:06.250Z,548.00
2023-03-27T15:42:06.230Z,564.00
2023-03-27T15:43:06.216Z,575.00
2023-03-27T15:44:06.205Z,634.00
2023-03-27T15:45:06.220Z,669.00
2023-03-27T15:46:06.273Z,595.00
2023-03-27T15:47:06.225Z,611.00
2023-03-27T15:48:06.238Z,658.00
2023-03-27T15:49:06.190Z,775.00
2023-03-27T15:50:06.165Z,699.00
2023-03-27T15:51:06.202Z,759.00
2023-03-27T15:52:06.151Z,658.00
2023-03-27T15:53:06.149Z,662.00
2023-03-27T15:54:06.161Z,1028.00
2023-03-27T15:55:06.150Z,1069.00
2023-03-27T15:56:06.156Z,1152.00
2023-03-27T15:57:10.791Z,1324.00
2023-03-27T15:58:07.132Z,1203.00
2023-03-27T15:59:06.156Z,843.00
2023-03-27T16:00:06.119Z,438.00
2023-03-27T16:01:18.015Z,400.00
2023-03-27T16:02:07.167Z,400.00
2023-03-27T16:03:06.216Z,400.00
2023-03-27T16:04:06.195Z,400.00
2023-03-27T16:05:06.137Z,400.00
2023-03-27T16:06:06.113Z,400.00
2023-03-27T16:07:06.081Z,400.00
2023-03-27T16:08:06.073Z,400.00
2023-03-27T16:09:06.077Z,400.00
2023-03-27T16:10:06.061Z,400.00
2023-03-27T16:11:06.066Z,400.00
2023-03-27T16:12:06.049Z,400.00
2023-03-27T16:13:06.039Z,400.00
2023-03-27T16:14:06.062Z,400.00
2023-03-27T16:15:08.403Z,400.00
2023-03-27T16:16:06.317Z,400.00
2023-03-27T16:17:06.286Z,400.00
2023-03-27T16:18:06.408Z,400.00
2023-03-27T16:19:06.391Z,400.00
2023-03-27T16:20:06.421Z,400.00
2023-03-27T16:21:06.808Z,487.00
2023-03-27T16:22:06.541Z,567.00
2023-03-27T16:23:06.568Z,658.00
2023-03-27T16:24:06.618Z,1012.00
2023-03-27T16:25:06.666Z,993.00
2023-03-27T16:26:06.703Z,1212.00
2023-03-27T16:27:06.772Z,1475.00
2023-03-27T16:28:06.838Z,1460.00
2023-03-27T16:29:06.892Z,1654.00
2023-03-27T16:30:06.945Z,1718.00
2023-03-27T16:31:07.015Z,1974.00
2023-03-27T16:32:07.059Z,2144.00
2023-03-27T16:33:07.176Z,2072.00
2023-03-27T16:34:07.124Z,2132.00
2023-03-27T16:35:07.410Z,2305.00
2023-03-27T16:36:07.162Z,2381.00
2023-03-27T16:37:07.101Z,2393.00
2023-03-27T16:38:07.097Z,2570.00
2023-03-27T16:39:07.146Z,2706.00
2023-03-27T16:40:07.095Z,2344.00
2023-03-27T16:41:07.100Z,2203.00
2023-03-27T16:42:07.107Z,2218.00
2023-03-27T16:43:07.123Z,2337.00
2023-03-27T16:44:07.154Z,2246.00
2023-03-27T16:45:07.195Z,1840.00
2023-03-27T16:46:07.265Z,1958.00
2023-03-27T16:47:07.274Z,2115.00
2023-03-27T16:48:07.337Z,2368.00
2023-03-27T16:49:07.323Z,2512.00
2023-03-27T16:50:11.751Z,2750.00
2023-03-27T16:51:07.344Z,2671.00
2023-03-27T16:52:07.326Z,2617.00
2023-03-27T16:53:07.314Z,2581.00
2023-03-27T16:54:07.338Z,2521.00
2023-03-27T16:55:07.776Z,2617.00
2023-03-27T16:56:07.309Z,2786.00
2023-03-27T16:57:07.309Z,2987.00
2023-03-27T16:58:07.281Z,2971.00
2023-03-27T16:59:07.274Z,3043.00
2023-03-27T17:00:07.259Z,3011.00
2023-03-27T17:01:07.308Z,3045.00
2023-03-27T17:02:07.271Z,3075.00
2023-03-27T17:03:07.309Z,3107.00
2023-03-27T17:04:07.249Z,3043.00
2023-03-27T17:05:07.279Z,3047.00
2023-03-27T17:06:07.245Z,2976.00
2023-03-27T17:07:07.242Z,2696.00
2023-03-27T17:08:07.527Z,2464.00
2023-03-27T17:09:07.237Z,2624.00
2023-03-27T17:10:07.237Z,2552.00
2023-03-27T17:11:07.207Z,2840.00
2023-03-27T17:12:07.204Z,2869.00
2023-03-27T17:13:07.195Z,2855.00
2023-03-27T17:14:07.197Z,2828.00
2023-03-27T17:15:07.203Z,2883.00
2023-03-27T17:16:07.188Z,3001.00
2023-03-27T17:17:07.200Z,2917.00
2023-03-27T17:18:07.192Z,2851.00
2023-03-27T17:19:07.164Z,2881.00
2023-03-27T17:20:07.168Z,2899.00
2023-03-27T17:21:07.158Z,3020.00
2023-03-27T17:22:07.140Z,3054.00
2023-03-27T17:23:07.136Z,2975.00
2023-03-27T17:24:07.138Z,2938.00
2023-03-27T17:25:07.112Z,2876.00
2023-03-27T17:26:09.107Z,2849.00
2023-03-27T17:27:07.116Z,2714.00
2023-03-27T17:28:07.122Z,2756.00
2023-03-27T17:29:07.095Z,2776.00
2023-03-27T17:30:07.108Z,2759.00
2023-03-27T17:31:07.112Z,2722.00
2023-03-27T17:32:07.114Z,2611.00
2023-03-27T17:33:07.193Z,2509.00
2023-03-27T17:34:07.077Z,2451.00
2023-03-27T17:35:07.062Z,2458.00
2023-03-27T17:36:07.059Z,2449.00
2023-03-27T17:37:07.093Z,2539.00
2023-03-27T17:38:07.045Z,2757.00
2023-03-27T17:39:07.043Z,2633.00
2023-03-27T17:40:07.059Z,2760.00
2023-03-27T17:41:07.029Z,2808.00
2023-03-27T17:42:07.036Z,2738.00
2023-03-27T17:43:07.026Z,2717.00
2023-03-27T17:44:07.642Z,2612.00
2023-03-27T17:45:06.998Z,2555.00
2023-03-27T17:46:07.024Z,2638.00
2023-03-27T17:47:07.000Z,2733.00
2023-03-27T17:48:07.093Z,2750.00
2023-03-27T17:49:06.995Z,2770.00
2023-03-27T17:50:06.973Z,2841.00
2023-03-27T17:51:09.749Z,1622.00
2023-03-27T17:52:06.962Z,1051.00
2023-03-27T17:53:07.020Z,608.00
2023-03-27T17:54:06.954Z,531.00
2023-03-27T17:55:06.944Z,538.00
2023-03-27T17:56:06.926Z,554.00
2023-03-27T17:57:06.980Z,583.00
2023-03-27T17:58:09.747Z,510.00
2023-03-27T17:59:06.920Z,425.00
2023-03-27T18:00:06.903Z,481.00
2023-03-27T18:01:06.908Z,523.00
2023-03-27T18:02:06.957Z,574.00
2023-03-27T18:03:06.942Z,694.00
2023-03-27T18:04:07.024Z,1104.00
2023-03-27T18:05:06.871Z,1165.00
2023-03-27T18:06:06.876Z,1289.00
2023-03-27T18:07:06.873Z,1423.00
2023-03-27T18:08:06.871Z,1507.00
2023-03-27T18:09:06.851Z,1502.00
2023-03-27T18:10:06.834Z,1528.00
2023-03-27T18:11:06.894Z,1700.00
2023-03-27T18:12:06.822Z,1748.00
2023-03-27T18:13:06.840Z,1917.00
2023-03-27T18:14:06.823Z,2063.00
2023-03-27T18:15:06.814Z,2393.00
2023-03-27T18:16:07.364Z,2506.00
2023-03-27T18:17:06.787Z,2420.00
2023-03-27T18:18:06.832Z,2383.00
2023-03-27T18:19:06.789Z,2353.00
2023-03-27T18:20:06.804Z,2291.00
2023-03-27T18:21:06.760Z,2346.00
2023-03-27T18:22:06.771Z,2425.00
2023-03-27T18:23:06.800Z,2515.00
2023-03-27T18:24:06.772Z,2267.00
2023-03-27T18:25:06.741Z,2434.00
2023-03-27T18:26:06.749Z,2403.00
2023-03-27T18:27:06.743Z,2259.00
2023-03-27T18:28:06.724Z,2496.00
2023-03-27T18:29:06.722Z,2451.00
2023-03-27T18:30:06.715Z,2587.00
2023-03-27T18:31:06.727Z,2546.00
2023-03-27T18:32:06.688Z,2464.00
2023-03-27T18:33:06.751Z,2335.00
2023-03-27T18:34:06.700Z,2263.00
2023-03-27T18:35:06.689Z,2139.00
2023-03-27T18:36:06.694Z,2087.00
2023-03-27T18:37:06.702Z,2171.00
2023-03-27T18:38:06.652Z,2262.00
2023-03-27T18:39:06.724Z,2258.00
2023-03-27T18:40:06.649Z,2183.00
2023-03-27T18:41:06.653Z,2125.00
2023-03-27T18:42:06.653Z,2246.00
2023-03-27T18:43:06.669Z,2225.00
2023-03-27T18:44:06.619Z,2166.00
2023-03-27T18:45:06.636Z,2018.00
2023-03-27T18:46:06.665Z,1948.00
2023-03-27T18:47:06.597Z,1883.00
2023-03-27T18:48:06.633Z,1936.00
2023-03-27T18:49:17.327Z,2044.00
2023-03-27T18:50:07.580Z,2048.00
2023-03-27T18:51:06.592Z,2065.00
2023-03-27T18:52:06.558Z,2068.00
2023-03-27T18:53:06.558Z,2085.00
2023-03-27T18:54:06.556Z,2094.00
2023-03-27T18:55:06.558Z,2122.00
2023-03-27T18:56:06.557Z,1976.00
2023-03-27T18:57:06.587Z,1914.00
2023-03-27T18:58:06.554Z,1942.00
2023-03-27T18:59:06.511Z,2030.00
2023-03-27T19:00:06.509Z,2032.00
2023-03-27T19:01:06.532Z,2055.00
2023-03-27T19:02:06.552Z,2113.00
2023-03-27T19:03:06.694Z,2123.00
2023-03-27T19:04:06.487Z,2100.00
2023-03-27T19:05:06.490Z,1978.00
2023-03-27T19:06:06.548Z,1864.00
2023-03-27T19:07:08.359Z,1684.00
2023-03-27T19:08:06.585Z,1740.00
2023-03-27T19:09:06.622Z,1916.00
2023-03-27T19:10:06.663Z,1951.00
2023-03-27T19:11:06.675Z,1789.00
2023-03-27T19:12:06.710Z,1794.00
2023-03-27T19:13:06.745Z,1878.00
2023-03-27T19:14:06.797Z,1857.00
2023-03-27T19:15:19.229Z,1795.00
2023-03-27T19:16:15.265Z,1795.00
2023-03-27T19:17:07.865Z,1797.00
2023-03-27T19:18:06.845Z,1817.00
2023-03-27T19:19:06.826Z,1844.00
2023-03-27T19:20:06.814Z,1741.00
2023-03-27T19:21:06.805Z,1540.00
2023-03-27T19:22:06.780Z,1583.00
2023-03-27T19:23:06.789Z,1422.00
2023-03-27T19:24:06.787Z,1475.00
2023-03-27T19:25:06.777Z,1492.00
2023-03-27T19:26:06.758Z,1565.00
2023-03-27T19:27:06.753Z,1739.00
2023-03-27T19:28:07.766Z,1739.00
2023-03-27T19:29:06.762Z,1743.00
2023-03-27T19:30:06.748Z,1755.00
2023-03-27T19:31:06.801Z,1670.00
2023-03-27T19:32:06.722Z,1606.00
2023-03-27T19:33:06.801Z,1354.00
2023-03-27T19:34:06.722Z,1150.00
2023-03-27T19:35:06.712Z,1316.00
2023-03-27T19:36:06.742Z,1326.00
2023-03-27T19:37:06.704Z,1262.00
2023-03-27T19:38:06.701Z,1203.00
2023-03-27T19:39:06.702Z,1440.00
2023-03-27T19:40:06.700Z,1391.00
2023-03-27T19:41:06.687Z,1223.00
2023-03-27T19:42:06.748Z,1211.00
2023-03-27T19:43:06.778Z,1293.00
2023-03-27T19:44:06.813Z,1313.00
2023-03-27T19:45:06.869Z,1336.00
2023-03-27T19:46:15.901Z,1334.00
2023-03-27T19:47:07.968Z,1337.00
2023-03-27T19:48:06.942Z,1311.00
2023-03-27T19:49:06.901Z,1093.00
2023-03-27T19:50:06.869Z,1079.00
2023-03-27T19:51:06.866Z,1131.00
2023-03-27T19:52:06.863Z,1094.00
2023-03-27T19:53:09.028Z,987.00
2023-03-27T19:54:06.897Z,796.00
2023-03-27T19:55:06.950Z,1018.00
2023-03-27T19:56:06.978Z,1104.00
2023-03-27T19:57:07.237Z,1091.00
2023-03-27T19:58:07.080Z,1132.00
2023-03-27T19:59:07.703Z,773.00
2023-03-27T20:00:07.157Z,914.00
2023-03-27T20:01:07.280Z,1046.00
2023-03-27T20:02:07.254Z,894.00
2023-03-27T20:03:07.412Z,790.00
2023-03-27T20:04:07.351Z,908.00
2023-03-27T20:05:07.384Z,959.00
2023-03-27T20:06:09.116Z,803.00
2023-03-27T20:07:07.433Z,970.00
2023-03-27T20:08:07.414Z,833.00
2023-03-27T20:09:07.428Z,1067.00
2023-03-27T20:10:07.422Z,1091.00
2023-03-27T20:11:07.458Z,1020.00
2023-03-27T20:12:07.423Z,1140.00
2023-03-27T20:13:07.382Z,1016.00
2023-03-27T20:14:07.394Z,1106.00
2023-03-27T20:15:12.124Z,1109.00
2023-03-27T20:16:08.413Z,1037.00
2023-03-27T20:17:12.317Z,1094.00
2023-03-27T20:18:08.409Z,1110.00
2023-03-27T20:19:07.368Z,1115.00
2023-03-27T20:20:07.360Z,1079.00
2023-03-27T20:21:07.341Z,997.00
2023-03-27T20:22:07.333Z,1042.00
2023-03-27T20:23:07.344Z,1238.00
2023-03-27T20:24:07.348Z,1281.00
2023-03-27T20:25:07.318Z,1159.00
2023-03-27T20:26:07.313Z,1242.00
2023-03-27T20:27:07.326Z,1119.00
2023-03-27T20:28:07.336Z,1099.00
2023-03-27T20:29:07.300Z,1132.00
2023-03-27T20:30:07.308Z,1116.00
2023-03-27T20:31:07.312Z,1230.00
2023-03-27T20:33:07.333Z,1125.00
2023-03-27T20:34:07.271Z,860.00
2023-03-27T20:35:16.488Z,1192.00
2023-03-27T20:36:08.368Z,1002.00
2023-03-27T20:37:07.302Z,1061.00
2023-03-27T20:38:07.302Z,1029.00
2023-03-27T20:39:07.292Z,1031.00
2023-03-27T20:40:07.297Z,906.00
2023-03-27T20:41:07.284Z,1134.00
2023-03-27T20:42:07.291Z,1082.00
2023-03-27T20:43:07.285Z,867.00
2023-03-27T20:44:07.277Z,1035.00
2023-03-27T20:45:07.259Z,1080.00
2023-03-27T20:46:07.271Z,839.00
2023-03-27T20:47:07.590Z,1087.00
2023-03-27T20:48:07.298Z,1250.00
2023-03-27T20:49:07.335Z,1005.00
2023-03-27T20:50:07.371Z,1145.00
2023-03-27T20:51:07.431Z,1126.00
2023-03-27T20:52:07.463Z,989.00
2023-03-27T20:53:07.511Z,856.00
2023-03-27T20:54:07.563Z,800.00
2023-03-27T20:55:07.631Z,762.00
2023-03-27T20:56:07.860Z,658.00
2023-03-27T20:57:07.894Z,827.00
2023-03-27T20:58:07.776Z,964.00
2023-03-27T20:59:07.838Z,710.00
2023-03-27T21:00:07.898Z,915.00
2023-03-27T21:01:07.894Z,1073.00
2023-03-27T21:02:07.889Z,905.00
2023-03-27T21:03:08.411Z,1005.00
2023-03-27T21:04:07.889Z,949.00
2023-03-27T21:05:07.921Z,972.00
2023-03-27T21:06:07.987Z,1023.00
2023-03-27T21:07:08.017Z,955.00
2023-03-27T21:08:08.069Z,903.00
2023-03-27T21:09:08.111Z,688.00
2023-03-27T21:10:08.171Z,771.00
2023-03-27T21:11:08.241Z,1069.00
2023-03-27T21:12:08.270Z,1036.00
2023-03-27T21:13:08.332Z,974.00
2023-03-27T21:14:08.312Z,862.00
2023-03-27T21:15:08.321Z,979.00
2023-03-27T21:16:08.418Z,1011.00
2023-03-27T21:17:08.402Z,913.00
2023-03-27T21:18:08.497Z,972.00
2023-03-27T21:19:08.499Z,822.00
2023-03-27T21:20:08.564Z,1092.00
2023-03-27T21:21:08.608Z,862.00
2023-03-27T21:22:08.702Z,634.00
2023-03-27T21:23:08.717Z,730.00
2023-03-27T21:24:08.770Z,666.00
2023-03-27T21:25:08.831Z,1008.00
2023-03-27T21:26:08.880Z,1056.00
2023-03-27T21:27:08.934Z,1152.00
2023-03-27T21:28:08.962Z,1163.00
2023-03-27T21:29:09.046Z,868.00
2023-03-27T21:30:09.074Z,719.00
2023-03-27T21:31:09.140Z,661.00
2023-03-27T21:32:09.274Z,736.00
2023-03-27T21:33:09.247Z,778.00
2023-03-27T21:34:09.293Z,901.00
2023-03-27T21:35:09.348Z,746.00
2023-03-27T21:36:09.521Z,641.00
2023-03-27T21:37:09.480Z,740.00
2023-03-27T21:38:09.503Z,733.00
2023-03-27T21:39:09.565Z,718.00
2023-03-27T21:40:09.616Z,851.00
2023-03-27T21:41:09.655Z,992.00
2023-03-27T21:42:09.712Z,885.00
2023-03-27T21:43:09.780Z,750.00
2023-03-27T21:44:09.811Z,934.00
2023-03-27T21:45:09.895Z,1069.00
2023-03-27T21:46:09.990Z,949.00
2023-03-27T21:47:09.986Z,1099.00
2023-03-27T21:48:10.087Z,1085.00
2023-03-27T21:49:10.114Z,1273.00
2023-03-27T21:50:10.165Z,1043.00
2023-03-27T21:51:10.201Z,905.00
2023-03-27T21:52:10.270Z,948.00
2023-03-27T21:53:10.306Z,850.00
2023-03-27T21:54:10.359Z,921.00
2023-03-27T21:55:10.440Z,828.00
2023-03-27T21:56:10.469Z,902.00
2023-03-27T21:57:10.582Z,1152.00
2023-03-27T21:58:10.577Z,1114.00
2023-03-27T21:59:10.640Z,1060.00
2023-03-27T22:00:10.687Z,1097.00
2023-03-27T22:01:10.773Z,1136.00
2023-03-27T22:02:10.790Z,1322.00
2023-03-27T22:03:10.842Z,1185.00
2023-03-27T22:04:10.948Z,1000.00
2023-03-27T22:05:10.943Z,964.00
2023-03-27T22:06:12.931Z,1149.00
2023-03-27T22:07:11.034Z,1196.00
2023-03-27T22:08:11.097Z,952.00
2023-03-27T22:09:11.155Z,1083.00
2023-03-27T22:10:11.213Z,952.00
2023-03-27T22:11:11.269Z,1099.00
2023-03-27T22:12:11.292Z,997.00
2023-03-27T22:13:11.347Z,1167.00
2023-03-27T22:14:11.421Z,1040.00
2023-03-27T22:15:11.471Z,924.00
2023-03-27T22:16:11.632Z,1099.00
2023-03-27T22:17:11.575Z,1230.00
2023-03-27T22:18:11.658Z,1250.00
2023-03-27T22:19:11.689Z,1185.00
2023-03-27T22:20:11.730Z,723.00
2023-03-27T22:21:11.801Z,896.00
2023-03-27T22:22:11.838Z,897.00
2023-03-27T22:23:11.916Z,925.00
2023-03-27T22:24:11.961Z,863.00
2023-03-27T22:25:12.008Z,902.00
2023-03-27T22:26:12.074Z,993.00
2023-03-27T22:27:12.110Z,1078.00
2023-03-27T22:28:12.168Z,1056.00
2023-03-27T22:29:12.227Z,1009.00
2023-03-27T22:30:12.288Z,1129.00
2023-03-27T22:31:12.481Z,953.00
2023-03-27T22:32:12.395Z,1126.00
2023-03-27T22:33:12.455Z,1024.00
2023-03-27T22:34:12.494Z,1117.00
2023-03-27T22:35:12.552Z,1066.00
2023-03-27T22:36:12.615Z,1022.00
2023-03-27T22:37:12.644Z,1047.00
2023-03-27T22:38:12.713Z,1134.00
2023-03-27T22:39:12.765Z,1060.00
2023-03-27T22:40:12.802Z,843.00
2023-03-27T22:41:12.867Z,817.00
2023-03-27T22:42:12.914Z,736.00
2023-03-27T22:43:22.926Z,1074.00
2023-03-27T22:44:13.970Z,905.00
2023-03-27T22:45:12.970Z,799.00
2023-03-27T22:46:12.972Z,893.00
2023-03-27T22:47:12.947Z,1045.00
2023-03-27T22:48:12.929Z,835.00
2023-03-27T22:49:12.919Z,956.00
2023-03-27T22:50:12.933Z,967.00
2023-03-27T22:51:12.934Z,849.00
2023-03-27T22:52:12.925Z,686.00
2023-03-27T22:53:12.902Z,989.00
2023-03-27T22:54:12.942Z,1110.00
2023-03-27T22:55:12.973Z,961.00
2023-03-27T22:56:13.036Z,1060.00
2023-03-27T22:57:13.097Z,935.00
2023-03-27T22:58:13.162Z,911.00
2023-03-27T22:59:13.214Z,1053.00
2023-03-27T23:00:13.264Z,1022.00
2023-03-27T23:01:13.320Z,1071.00
2023-03-27T23:02:13.454Z,975.00
2023-03-27T23:03:13.509Z,1063.00
2023-03-27T23:04:13.496Z,1211.00
2023-03-27T23:05:13.544Z,1044.00
2023-03-27T23:06:13.612Z,1036.00
2023-03-27T23:07:13.657Z,1036.00
2023-03-27T23:08:13.829Z,1194.00
2023-03-27T23:09:13.759Z,1272.00
2023-03-27T23:10:13.816Z,1440.00
2023-03-27T23:11:13.923Z,1296.00
2023-03-27T23:12:13.943Z,1333.00
2023-03-27T23:13:13.986Z,1128.00
2023-03-27T23:14:14.052Z,802.00
2023-03-27T23:15:14.122Z,1010.00
2023-03-27T23:16:14.211Z,1056.00
2023-03-27T23:17:14.298Z,1195.00
2023-03-27T23:18:14.252Z,1439.00
2023-03-27T23:19:14.313Z,1451.00
2023-03-27T23:20:14.384Z,1250.00
2023-03-27T23:21:14.441Z,1221.00
2023-03-27T23:22:14.501Z,1204.00
2023-03-27T23:23:14.555Z,1093.00
2023-03-27T23:24:14.613Z,806.00
2023-03-27T23:25:14.683Z,899.00
2023-03-27T23:26:14.742Z,1238.00
2023-03-27T23:27:14.789Z,1058.00
2023-03-27T23:28:14.844Z,1274.00
2023-03-27T23:29:14.901Z,1119.00
2023-03-27T23:30:14.953Z,1284.00
2023-03-27T23:31:15.062Z,1209.00
2023-03-27T23:32:15.078Z,1056.00
2023-03-27T23:33:15.136Z,976.00
2023-03-27T23:34:15.192Z,1125.00
2023-03-27T23:35:15.259Z,1244.00
2023-03-27T23:36:15.345Z,1136.00
2023-03-27T23:37:15.370Z,1117.00
2023-03-27T23:38:15.413Z,1097.00
2023-03-27T23:39:15.479Z,1141.00
2023-03-27T23:40:15.537Z,1039.00
2023-03-27T23:41:15.594Z,1131.00
2023-03-27T23:42:15.647Z,1196.00
2023-03-27T23:43:15.692Z,1240.00
2023-03-27T23:44:15.760Z,1361.00
2023-03-27T23:45:15.823Z,1192.00
2023-03-27T23:46:15.970Z,1203.00
2023-03-27T23:47:15.924Z,1240.00
2023-03-27T23:48:15.980Z,927.00
2023-03-27T23:49:16.048Z,992.00
2023-03-27T23:50:16.099Z,956.00
2023-03-27T23:51:16.187Z,933.00
2023-03-27T23:52:16.230Z,1026.00
2023-03-27T23:53:16.267Z,1070.00
2023-03-27T23:54:16.348Z,1090.00
2023-03-27T23:55:16.402Z,1160.00
2023-03-27T23:56:16.451Z,910.00
2023-03-27T23:57:16.550Z,1217.00
2023-03-27T23:58:16.590Z,1243.00
2023-03-27T23:59:16.630Z,1241.00
